Time;durP1;ratioP1;P1;durP2;ratioP2;P2;SDS_P1;SDS_P2;PMS_P1;PMS_P2;Temp;Humidity;BMP_temperature;BMP_pressure;BME280_temperature;BME280_humidity;BME280_pressure;Samples;Min_cycle;Max_cycle;Signal;HPM_P1;HPM_P2
2023/10/31 00:01:59;;;;;;;6.00;2.40;;;;;;;22.82;63.06;101823.95;107185;1266;25353;-61
2023/10/31 00:04:26;;;;;;;7.00;2.00;;;;;;;22.82;63.08;101826.08;107076;1263;25373;-68
2023/10/31 00:06:53;;;;;;;9.60;2.60;;;;;;;22.82;63.18;101824.64;107260;1257;25357;-61
2023/10/31 00:09:20;;;;;;;8.70;2.80;;;;;;;22.83;63.24;101826.20;106899;1267;25403;-64
2023/10/31 00:11:47;;;;;;;8.90;2.50;;;;;;;22.83;63.23;101826.90;107118;1264;25411;-61
2023/10/31 00:14:14;;;;;;;6.30;2.00;;;;;;;22.83;63.21;101828.30;107160;1258;25348;-62
2023/10/31 00:16:58;;;;;;;16.80;3.80;;;;;;;22.83;63.36;101821.41;106942;1270;25409;-63
2023/10/31 00:19:25;;;;;;;9.40;2.60;;;;;;;22.83;63.34;101818.58;107128;1264;22953;-63
2023/10/31 00:21:52;;;;;;;7.60;2.90;;;;;;;22.83;63.34;101815.95;107143;1267;25335;-62
2023/10/31 00:24:19;;;;;;;10.90;3.20;;;;;;;22.83;63.46;101818.05;107139;1256;25589;-64
2023/10/31 00:26:47;;;;;;;9.40;3.10;;;;;;;22.83;63.55;101818.02;107183;1254;25352;-65
2023/10/31 00:29:14;;;;;;;7.30;2.20;;;;;;;22.84;63.65;101815.91;107152;1254;25338;-62
2023/10/31 00:31:41;;;;;;;11.60;2.80;;;;;;;22.83;63.66;101817.19;107180;1254;25359;-66
2023/10/31 00:34:10;;;;;;;7.10;2.20;;;;;;;22.82;63.86;101813.70;107098;1257;25440;-66
2023/10/31 00:36:37;;;;;;;9.60;3.10;;;;;;;22.83;63.88;101812.06;107058;1259;22751;-64
2023/10/31 00:39:03;;;;;;;10.10;3.60;;;;;;;22.82;63.92;101809.27;106950;1264;25484;-68
2023/10/31 00:41:32;;;;;;;9.00;2.70;;;;;;;22.81;63.99;101802.44;107058;1259;26487;-63
2023/10/31 00:43:59;;;;;;;7.70;2.60;;;;;;;22.81;63.99;101797.98;107048;1264;25348;-66
2023/10/31 00:46:26;;;;;;;16.80;3.40;;;;;;;22.81;63.99;101796.95;106628;1257;25357;-64
2023/10/31 00:48:53;;;;;;;6.30;2.40;;;;;;;22.81;63.97;101791.80;106803;1257;22546;-62
2023/10/31 00:51:20;;;;;;;10.40;3.10;;;;;;;22.81;64.06;101790.77;106882;1258;25376;-67
2023/10/31 00:53:47;;;;;;;11.30;3.10;;;;;;;22.81;64.02;101794.66;106772;1260;25359;-65
2023/10/31 00:56:14;;;;;;;9.60;3.50;;;;;;;22.81;64.05;101791.48;107014;1266;24223;-67
2023/10/31 00:58:41;;;;;;;12.80;3.40;;;;;;;22.81;64.04;101791.64;106746;1257;25448;-65
2023/10/31 01:01:08;;;;;;;10.90;2.90;;;;;;;22.81;64.10;101788.82;106922;1261;25490;-63
2023/10/31 01:03:35;;;;;;;12.30;3.80;;;;;;;22.75;64.26;101787.22;107063;1267;25341;-65
2023/10/31 01:06:04;;;;;;;10.60;3.20;;;;;;;22.68;64.56;101785.83;107125;1260;24272;-65
2023/10/31 01:08:31;;;;;;;9.90;3.30;;;;;;;22.69;64.60;101785.40;107082;1266;22615;-65
2023/10/31 01:10:58;;;;;;;8.10;2.90;;;;;;;22.76;64.28;101783.79;107108;1265;25341;-70
2023/10/31 01:13:25;;;;;;;9.80;3.40;;;;;;;22.75;64.21;101778.36;107085;1253;24212;-66
2023/10/31 01:15:52;;;;;;;9.50;3.90;;;;;;;22.79;64.09;101777.27;107050;1253;25439;-67
2023/10/31 01:18:19;;;;;;;12.10;3.80;;;;;;;22.72;64.15;101779.20;107311;1257;25415;-71
2023/10/31 01:20:47;;;;;;;7.20;3.10;;;;;;;22.61;64.55;101779.29;107181;1249;22541;-66
2023/10/31 01:23:14;;;;;;;8.20;3.50;;;;;;;22.60;64.52;101781.82;107053;1258;25497;-64
2023/10/31 01:25:41;;;;;;;8.60;3.80;;;;;;;22.73;64.21;101778.99;107228;1256;25376;-69
2023/10/31 01:28:08;;;;;;;11.70;3.80;;;;;;;22.74;64.01;101784.77;106989;1254;25914;-66
2023/10/31 01:30:35;;;;;;;9.70;3.60;;;;;;;22.69;64.18;101782.80;107132;1251;25341;-65
2023/10/31 01:33:02;;;;;;;7.50;2.70;;;;;;;22.69;64.16;101777.80;107261;1250;25357;-62
2023/10/31 01:35:30;;;;;;;11.20;4.10;;;;;;;22.69;64.22;101782.39;107097;1264;25351;-63
2023/10/31 01:37:57;;;;;;;11.30;3.50;;;;;;;22.69;64.20;101779.41;107217;1251;25460;-66
2023/10/31 01:40:24;;;;;;;8.90;3.60;;;;;;;22.69;64.17;101780.33;107258;1263;25494;-65
2023/10/31 01:42:50;;;;;;;12.30;3.40;;;;;;;22.71;64.02;101780.36;107134;1251;25327;-64
2023/10/31 01:45:18;;;;;;;8.10;2.90;;;;;;;22.72;63.97;101774.11;107207;1260;22600;-64
2023/10/31 01:47:45;;;;;;;7.80;3.60;;;;;;;22.62;64.26;101777.95;107159;1256;22560;-64
2023/10/31 01:50:12;;;;;;;11.40;3.30;;;;;;;22.53;64.61;101776.54;107136;1253;22531;-65
2023/10/31 01:52:39;;;;;;;11.20;3.50;;;;;;;22.51;64.64;101771.16;107253;1264;25444;-65
2023/10/31 01:55:06;;;;;;;9.30;3.10;;;;;;;22.63;64.32;101767.17;107130;1254;24198;-64
2023/10/31 01:57:34;;;;;;;13.10;4.20;;;;;;;22.75;63.80;101767.38;107068;1254;25419;-64
2023/10/31 02:00:02;;;;;;;9.80;3.60;;;;;;;22.77;63.69;101764.95;107004;1257;22541;-66
2023/10/31 02:02:41;;;;;;;8.40;3.20;;;;;;;22.77;63.70;101765.67;107186;1254;25498;-72
2023/10/31 02:05:08;;;;;;;8.50;3.40;;;;;;;22.58;64.47;101757.31;107147;1249;22532;-68
2023/10/31 02:07:35;;;;;;;11.20;3.60;;;;;;;22.53;64.66;101756.90;106732;1265;25364;-65
2023/10/31 02:10:02;;;;;;;9.00;4.00;;;;;;;22.70;64.25;101753.36;107158;1257;25418;-66
2023/10/31 02:12:36;;;;;;;10.80;3.50;;;;;;;22.76;64.04;101746.99;106898;1254;25359;-62
2023/10/31 02:15:03;;;;;;;9.10;3.30;;;;;;;22.72;64.18;101749.17;107258;1259;24210;-62
2023/10/31 02:17:30;;;;;;;10.30;3.30;;;;;;;22.77;64.01;101750.29;107186;1256;25300;-65
2023/10/31 02:19:57;;;;;;;8.90;3.40;;;;;;;22.78;64.04;101751.80;107086;1256;25497;-64
2023/10/31 02:22:25;;;;;;;13.60;4.00;;;;;;;22.79;64.06;101753.20;107231;1257;25338;-64
2023/10/31 02:24:52;;;;;;;11.10;3.30;;;;;;;22.79;64.13;101753.55;107135;1253;25425;-66
2023/10/31 02:27:19;;;;;;;8.20;3.30;;;;;;;22.79;64.13;101752.13;107091;1257;25362;-65
2023/10/31 02:29:46;;;;;;;14.50;4.40;;;;;;;22.79;64.27;101749.80;107029;1257;23865;-66
2023/10/31 02:32:13;;;;;;;11.30;4.10;;;;;;;22.79;64.21;101752.46;106705;1268;25343;-64
2023/10/31 02:34:40;;;;;;;12.90;4.20;;;;;;;22.80;64.17;101753.50;107131;1254;23906;-64
2023/10/31 02:37:07;;;;;;;13.90;5.00;;;;;;;22.80;64.35;101754.02;107211;1258;25362;-65
2023/10/31 02:39:35;;;;;;;10.00;4.30;;;;;;;22.79;64.27;101753.19;107083;1254;25376;-72
2023/10/31 02:42:02;;;;;;;9.80;4.10;;;;;;;22.79;64.25;101753.35;107165;1253;25554;-64
2023/10/31 02:44:29;;;;;;;8.50;4.20;;;;;;;22.79;64.36;101747.91;107127;1253;25337;-64
2023/10/31 02:46:56;;;;;;;14.20;5.20;;;;;;;22.79;64.37;101746.27;107171;1269;25328;-64
2023/10/31 02:49:23;;;;;;;10.40;4.30;;;;;;;22.79;64.22;101745.74;106817;1252;474315;-63
2023/10/31 02:51:50;;;;;;;15.90;5.30;;;;;;;22.78;64.29;101743.14;107186;1257;25378;-65
2023/10/31 02:54:17;;;;;;;14.30;5.50;;;;;;;22.78;64.35;101738.94;107158;1263;25443;-68
2023/10/31 02:56:44;;;;;;;10.50;5.30;;;;;;;22.70;64.60;101736.72;107208;1254;25335;-65
2023/10/31 02:59:11;;;;;;;9.60;5.20;;;;;;;22.74;64.39;101732.44;107162;1266;25357;-64
2023/10/31 03:01:38;;;;;;;10.10;6.40;;;;;;;22.74;64.34;101734.88;107107;1262;24265;-64
2023/10/31 03:04:05;;;;;;;11.50;6.00;;;;;;;22.74;64.43;101732.23;107193;1253;25362;-66
2023/10/31 03:06:32;;;;;;;14.50;6.10;;;;;;;22.75;64.31;101731.31;106734;1257;25471;-70
2023/10/31 03:08:59;;;;;;;10.20;5.70;;;;;;;22.75;64.34;101729.02;107098;1256;25349;-66
2023/10/31 03:11:26;;;;;;;10.80;5.70;;;;;;;22.75;64.24;101730.23;106854;1261;25505;-68
2023/10/31 03:13:53;;;;;;;11.70;6.00;;;;;;;22.75;64.34;101730.41;107182;1257;22647;-63
2023/10/31 03:16:21;;;;;;;9.20;5.50;;;;;;;22.71;64.50;101730.83;107179;1259;25498;-65
2023/10/31 03:18:48;;;;;;;11.80;6.10;;;;;;;22.70;64.45;101728.42;107222;1252;25366;-64
2023/10/31 03:21:15;;;;;;;13.70;6.50;;;;;;;22.72;64.25;101735.34;107145;1257;25380;-67
2023/10/31 03:23:43;;;;;;;12.20;6.20;;;;;;;22.72;64.38;101741.74;106909;1259;25353;-70
2023/10/31 03:26:11;;;;;;;11.50;6.50;;;;;;;22.71;64.34;101743.56;107044;1252;22535;-68
2023/10/31 03:28:38;;;;;;;13.90;6.80;;;;;;;22.70;64.29;101749.43;107150;1254;25341;-68
2023/10/31 03:31:05;;;;;;;10.20;6.30;;;;;;;22.69;64.36;101747.56;106851;1260;24351;-67
2023/10/31 03:33:32;;;;;;;14.90;7.00;;;;;;;22.69;64.39;101747.38;107217;1257;25348;-70
2023/10/31 03:35:59;;;;;;;13.20;7.00;;;;;;;22.67;64.42;101748.71;107078;1262;25348;-66
2023/10/31 03:38:26;;;;;;;17.10;6.80;;;;;;;22.67;64.45;101746.77;107114;1254;24185;-68
2023/10/31 03:40:53;;;;;;;15.00;8.00;;;;;;;22.67;64.45;101748.92;106983;1258;25350;-65
2023/10/31 03:43:20;;;;;;;13.70;7.80;;;;;;;22.66;64.46;101748.45;107097;1260;25548;-66
2023/10/31 03:45:47;;;;;;;16.90;8.30;;;;;;;22.66;64.60;101746.14;106709;1271;25341;-68
2023/10/31 03:48:18;;;;;;;12.00;7.60;;;;;;;22.65;64.43;101747.73;106803;1273;25341;-65
2023/10/31 03:50:45;;;;;;;15.00;7.70;;;;;;;22.65;64.53;101747.05;107053;1257;25412;-67
2023/10/31 03:53:12;;;;;;;11.80;8.30;;;;;;;22.64;64.59;101748.88;107116;1263;25377;-69
2023/10/31 03:55:39;;;;;;;16.50;8.70;;;;;;;22.64;64.60;101753.66;107108;1253;25386;-74
2023/10/31 03:58:06;;;;;;;14.50;8.80;;;;;;;22.63;64.59;101751.91;107052;1256;25492;-67
2023/10/31 04:00:33;;;;;;;13.20;9.00;;;;;;;22.65;64.62;101753.08;106795;1266;25348;-66
2023/10/31 04:03:01;;;;;;;14.20;8.30;;;;;;;22.65;64.67;101752.17;107109;1253;25369;-68
2023/10/31 04:05:28;;;;;;;13.80;8.90;;;;;;;22.65;64.62;101755.36;106979;1252;25327;-69
2023/10/31 04:07:55;;;;;;;17.80;8.50;;;;;;;22.66;64.43;101755.52;106648;1256;23860;-75
2023/10/31 04:10:22;;;;;;;17.60;9.00;;;;;;;22.65;64.27;101756.08;106887;1263;25334;-71
2023/10/31 04:12:49;;;;;;;17.60;9.30;;;;;;;22.65;64.40;101758.39;106814;1257;25425;-65
2023/10/31 04:15:16;;;;;;;14.10;8.80;;;;;;;22.66;64.27;101759.23;107197;1263;24253;-70
2023/10/31 04:17:43;;;;;;;15.00;9.00;;;;;;;22.65;64.31;101760.64;106698;1255;24206;-65
2023/10/31 04:20:11;;;;;;;15.10;8.70;;;;;;;22.66;64.25;101756.20;106979;1254;23868;-65
2023/10/31 04:22:38;;;;;;;16.00;8.90;;;;;;;22.67;64.18;101760.42;106999;1262;25370;-68
2023/10/31 04:25:05;;;;;;;22.30;9.00;;;;;;;22.67;63.95;101763.06;107032;1262;25518;-72
2023/10/31 04:27:33;;;;;;;12.60;8.20;;;;;;;22.66;64.02;101762.21;106938;1253;24978;-64
2023/10/31 04:30:00;;;;;;;19.70;8.90;;;;;;;22.67;63.87;101762.00;106852;1262;25407;-64
2023/10/31 04:32:28;;;;;;;19.00;9.60;;;;;;;22.68;63.74;101763.54;107000;1258;25403;-67
2023/10/31 04:34:55;;;;;;;17.60;8.30;;;;;;;22.67;63.63;101767.48;106937;1255;25414;-64
2023/10/31 04:37:22;;;;;;;13.00;8.40;;;;;;;22.67;63.63;101767.98;107133;1252;25392;-68
2023/10/31 04:39:49;;;;;;;18.70;9.00;;;;;;;22.68;63.55;101771.52;107167;1256;25345;-64
2023/10/31 04:42:16;;;;;;;13.90;8.50;;;;;;;22.68;63.40;101773.61;107161;1255;25344;-66
2023/10/31 04:44:43;;;;;;;12.40;7.90;;;;;;;22.67;63.28;101772.41;107067;1253;25348;-65
2023/10/31 04:47:10;;;;;;;13.80;7.90;;;;;;;22.67;63.03;101775.82;106862;1255;25422;-70
2023/10/31 04:49:37;;;;;;;16.80;7.50;;;;;;;22.66;62.83;101776.73;106958;1254;24063;-64
2023/10/31 04:52:04;;;;;;;16.70;7.80;;;;;;;22.65;62.73;101776.94;106937;1255;25348;-62
2023/10/31 04:54:31;;;;;;;14.50;8.10;;;;;;;22.64;62.61;101778.06;107085;1250;23854;-69
2023/10/31 04:56:58;;;;;;;14.40;8.20;;;;;;;22.63;62.54;101779.19;106352;1250;1002966;-62
2023/10/31 04:59:25;;;;;;;14.80;8.10;;;;;;;22.64;62.51;101779.27;107083;1251;25564;-64
2023/10/31 05:01:52;;;;;;;13.60;8.80;;;;;;;22.83;61.97;101787.08;106982;1266;25362;-66
2023/10/31 05:04:20;;;;;;;16.30;8.80;;;;;;;22.90;61.59;101788.08;107182;1254;25425;-64
2023/10/31 05:06:47;;;;;;;16.40;7.50;;;;;;;22.92;61.53;101789.22;107149;1253;25379;-65
2023/10/31 05:09:14;;;;;;;18.70;9.90;;;;;;;22.91;61.39;101788.57;107180;1256;25376;-62
2023/10/31 05:11:41;;;;;;;18.00;8.40;;;;;;;22.93;61.23;101788.99;107140;1249;25337;-64
2023/10/31 05:14:10;;;;;;;16.30;8.50;;;;;;;22.94;61.39;101789.80;107111;1254;25823;-65
2023/10/31 05:16:41;;;;;;;19.60;9.00;;;;;;;22.95;61.33;101790.84;106938;1261;22544;-66
2023/10/31 05:19:09;;;;;;;19.50;8.20;;;;;;;22.96;61.26;101795.17;107066;1250;25310;-62
2023/10/31 05:21:36;;;;;;;15.80;8.60;;;;;;;22.97;61.07;101797.61;106844;1255;24257;-64
2023/10/31 05:24:03;;;;;;;19.90;9.50;;;;;;;22.96;60.98;101797.13;107213;1256;25415;-61
2023/10/31 05:26:30;;;;;;;16.40;9.10;;;;;;;22.97;60.87;101790.70;106832;1254;25398;-64
2023/10/31 05:28:57;;;;;;;20.50;8.00;;;;;;;23.00;60.86;101795.16;107145;1259;25298;-66
2023/10/31 05:31:25;;;;;;;14.80;6.80;;;;;;;23.01;60.68;101798.58;106791;1267;25465;-61
2023/10/31 05:33:54;;;;;;;17.40;7.50;;;;;;;23.03;60.63;101801.35;107108;1252;25334;-64
2023/10/31 05:36:23;;;;;;;16.50;7.40;;;;;;;23.04;60.47;101801.27;107049;1255;25366;-66
2023/10/31 05:38:50;;;;;;;16.50;7.20;;;;;;;23.05;60.31;101801.56;106669;1259;24234;-62
2023/10/31 05:41:17;;;;;;;15.80;7.30;;;;;;;23.02;60.48;101797.32;107159;1256;25425;-67
2023/10/31 05:43:44;;;;;;;16.60;7.00;;;;;;;23.02;60.49;101791.66;107025;1259;25455;-63
2023/10/31 05:46:13;;;;;;;11.50;7.10;;;;;;;22.95;60.70;101789.77;106778;1272;25376;-62
2023/10/31 05:48:46;;;;;;;16.20;7.40;;;;;;;22.95;60.66;101790.31;107056;1255;24188;-61
2023/10/31 05:51:13;;;;;;;12.10;7.00;;;;;;;22.97;60.33;101787.17;107139;1254;25403;-63
2023/10/31 05:53:41;;;;;;;16.40;7.50;;;;;;;22.99;60.36;101792.93;107136;1256;24176;-69
2023/10/31 05:56:09;;;;;;;12.30;7.10;;;;;;;23.01;60.38;101796.31;106937;1266;22768;-61
2023/10/31 05:58:37;;;;;;;14.20;7.00;;;;;;;23.06;60.30;101799.40;107154;1259;25341;-65
2023/10/31 06:01:04;;;;;;;16.00;7.40;;;;;;;23.09;60.11;101797.97;106903;1258;24224;-66
2023/10/31 06:03:32;;;;;;;18.80;7.50;;;;;;;23.12;59.86;101794.98;107077;1266;25282;-63
2023/10/31 06:05:59;;;;;;;16.80;7.40;;;;;;;23.15;59.75;101799.73;107225;1262;25396;-63
2023/10/31 06:08:29;;;;;;;14.50;7.00;;;;;;;23.18;59.77;101798.15;107129;1254;25366;-64
2023/10/31 06:10:56;;;;;;;15.50;7.20;;;;;;;23.21;59.74;101801.52;107204;1256;25354;-62
2023/10/31 06:13:27;;;;;;;11.60;6.50;;;;;;;23.23;59.45;101800.38;106842;1255;25338;-59
2023/10/31 06:15:54;;;;;;;13.70;6.60;;;;;;;23.21;59.44;101793.92;106756;1254;25912;-60
2023/10/31 06:18:26;;;;;;;11.60;6.40;;;;;;;23.24;59.31;101796.38;106114;1262;1002940;-60
2023/10/31 06:20:53;;;;;;;17.00;7.70;;;;;;;23.26;58.92;101795.21;106691;1269;22527;-60
2023/10/31 06:23:20;;;;;;;14.50;7.10;;;;;;;23.28;58.99;101788.91;106694;1257;25464;-61
2023/10/31 06:25:47;;;;;;;9.80;6.20;;;;;;;23.30;59.12;101791.09;106405;1260;24232;-65
2023/10/31 06:28:14;;;;;;;12.90;6.60;;;;;;;23.32;59.12;101787.98;107031;1254;25888;-61
2023/10/31 06:30:41;;;;;;;11.90;6.00;;;;;;;23.35;58.89;101789.60;107053;1269;25799;-63
2023/10/31 06:33:10;;;;;;;11.00;6.30;;;;;;;23.37;58.89;101791.58;107183;1255;25344;-62
2023/10/31 06:35:37;;;;;;;15.00;6.10;;;;;;;23.46;58.50;101791.57;107212;1249;22527;-63
2023/10/31 06:38:04;;;;;;;11.40;5.70;;;;;;;23.50;58.18;101792.73;107149;1250;25386;-60
2023/10/31 06:40:31;;;;;;;11.80;6.00;;;;;;;23.52;58.14;101786.25;107164;1254;25366;-63
2023/10/31 06:42:59;;;;;;;12.80;5.70;;;;;;;23.53;58.15;101787.08;106872;1253;23690;-62
2023/10/31 06:45:26;;;;;;;11.50;6.20;;;;;;;23.54;58.29;101782.98;107179;1250;25348;-62
2023/10/31 06:47:53;;;;;;;13.10;5.90;;;;;;;23.57;58.11;101783.27;107145;1259;22638;-64
2023/10/31 06:50:20;;;;;;;11.70;5.90;;;;;;;23.60;57.82;101785.62;107225;1256;22520;-62
2023/10/31 06:52:47;;;;;;;12.70;6.30;;;;;;;23.61;57.65;101784.84;106907;1260;25327;-60
2023/10/31 06:55:15;;;;;;;10.20;5.90;;;;;;;23.63;57.87;101781.02;106948;1255;25347;-60
2023/10/31 06:57:43;;;;;;;15.00;6.10;;;;;;;23.64;57.90;101779.49;107235;1262;25421;-60
2023/10/31 07:00:11;;;;;;;12.70;6.10;;;;;;;23.66;57.75;101780.64;107044;1257;25301;-62
2023/10/31 07:02:38;;;;;;;11.80;6.20;;;;;;;23.68;57.70;101777.30;106801;1269;24304;-60
2023/10/31 07:05:06;;;;;;;10.70;5.60;;;;;;;23.68;57.49;101777.29;106839;1259;25356;-61
2023/10/31 07:07:33;;;;;;;15.40;6.00;;;;;;;23.72;57.40;101772.48;107122;1253;25379;-62
2023/10/31 07:10:00;;;;;;;13.70;5.30;;;;;;;23.73;57.36;101771.16;107170;1263;25361;-59
2023/10/31 07:12:28;;;;;;;15.10;6.20;;;;;;;23.74;57.26;101772.70;106859;1265;25535;-63
2023/10/31 07:14:55;;;;;;;9.20;5.70;;;;;;;23.77;57.21;101770.40;107195;1254;25386;-60
2023/10/31 07:17:22;;;;;;;10.60;6.10;;;;;;;23.78;57.28;101769.42;106846;1259;25376;-65
2023/10/31 07:19:49;;;;;;;9.60;5.50;;;;;;;23.80;57.32;101772.83;107087;1254;25366;-62
2023/10/31 07:22:16;;;;;;;9.60;6.60;;;;;;;23.81;57.36;101770.10;107075;1263;25341;-62
2023/10/31 07:24:43;;;;;;;13.30;5.80;;;;;;;23.83;57.10;101771.09;107188;1251;25335;-62
2023/10/31 07:27:10;;;;;;;11.90;6.00;;;;;;;23.83;56.91;101773.75;106808;1256;22624;-67
2023/10/31 07:29:41;;;;;;;14.20;6.20;;;;;;;23.83;57.04;101777.64;107261;1258;23299;-64
2023/10/31 07:32:08;;;;;;;12.70;6.60;;;;;;;23.82;56.84;101775.55;107245;1254;25488;-62
2023/10/31 07:34:40;;;;;;;17.10;6.60;;;;;;;23.82;56.59;101778.42;107606;1254;25348;-62
2023/10/31 07:37:07;;;;;;;14.50;6.60;;;;;;;23.81;56.58;101777.21;107133;1254;22651;-64
2023/10/31 07:39:34;;;;;;;14.90;6.70;;;;;;;23.81;56.60;101775.61;107374;1257;25348;-59
2023/10/31 07:42:01;;;;;;;11.80;6.70;;;;;;;23.82;56.79;101773.27;107472;1259;23116;-64
2023/10/31 07:44:29;;;;;;;13.30;6.80;;;;;;;23.82;56.92;101769.34;107245;1253;23298;-61
2023/10/31 07:46:56;;;;;;;17.50;7.00;;;;;;;23.83;57.04;101772.67;107051;1266;22520;-61
2023/10/31 07:49:23;;;;;;;15.30;7.50;;;;;;;23.83;57.01;101773.36;107378;1266;23883;-60
2023/10/31 07:51:50;;;;;;;11.50;7.10;;;;;;;23.85;57.01;101774.18;107135;1265;25446;-61
2023/10/31 07:54:18;;;;;;;16.10;7.40;;;;;;;23.85;57.06;101774.30;107216;1250;24210;-64
2023/10/31 07:56:45;;;;;;;11.80;6.20;;;;;;;23.88;56.98;101772.21;107317;1250;25420;-63
2023/10/31 07:59:12;;;;;;;12.40;7.20;;;;;;;23.90;56.99;101770.83;107182;1253;25301;-61
2023/10/31 08:01:39;;;;;;;18.90;9.90;;;;;;;23.93;56.84;101769.40;107232;1267;24327;-61
2023/10/31 08:04:06;;;;;;;22.40;15.10;;;;;;;23.94;56.99;101765.08;107371;1256;24344;-62
2023/10/31 08:06:34;;;;;;;29.50;16.20;;;;;;;23.96;56.93;101761.22;107212;1254;25472;-60
2023/10/31 08:09:01;;;;;;;37.40;24.40;;;;;;;23.98;56.87;101763.93;107551;1266;25577;-60
2023/10/31 08:11:29;;;;;;;41.50;23.00;;;;;;;24.00;56.82;101764.48;107355;1253;23349;-65
2023/10/31 08:13:56;;;;;;;48.90;28.30;;;;;;;24.02;56.88;101758.03;106970;1254;25587;-61
2023/10/31 08:16:26;;;;;;;63.00;35.30;;;;;;;24.04;56.74;101756.48;106829;1256;22978;-61
2023/10/31 08:18:53;;;;;;;64.90;34.20;;;;;;;24.06;56.82;101753.52;107019;1257;22526;-59
2023/10/31 08:21:20;;;;;;;65.80;37.80;;;;;;;24.09;56.91;101750.32;106993;1256;22526;-62
2023/10/31 08:23:47;;;;;;;58.50;31.10;;;;;;;24.13;56.93;101749.21;106991;1254;25464;-60
2023/10/31 08:26:14;;;;;;;31.60;16.90;;;;;;;24.17;57.00;101744.70;107411;1266;25376;-61
2023/10/31 08:28:41;;;;;;;28.10;13.80;;;;;;;24.20;57.06;101738.83;107269;1266;25399;-61
2023/10/31 08:31:08;;;;;;;18.20;9.50;;;;;;;24.24;56.82;101738.75;107352;1256;23876;-63
2023/10/31 08:33:35;;;;;;;20.80;10.00;;;;;;;24.27;56.73;101737.33;107025;1263;24353;-61
2023/10/31 08:36:03;;;;;;;15.50;8.90;;;;;;;24.32;56.79;101740.26;107727;1266;25372;-60
2023/10/31 08:38:30;;;;;;;14.20;8.40;;;;;;;24.36;56.57;101733.55;107981;1260;24323;-61
2023/10/31 08:40:59;;;;;;;15.00;7.40;;;;;;;24.40;56.58;101731.56;106994;1255;23337;-63
2023/10/31 08:43:26;;;;;;;12.00;7.10;;;;;;;24.43;56.42;101731.73;106878;1272;22624;-62
2023/10/31 08:45:54;;;;;;;22.30;8.20;;;;;;;24.45;56.28;101736.36;107111;1254;25502;-63
2023/10/31 08:48:21;;;;;;;18.00;7.10;;;;;;;24.46;56.31;101733.23;107192;1264;25460;-60
2023/10/31 08:50:48;;;;;;;13.00;6.20;;;;;;;24.49;56.04;101728.30;107156;1266;25363;-60
2023/10/31 08:53:15;;;;;;;13.90;6.60;;;;;;;24.51;56.24;101728.33;107339;1269;25351;-59
2023/10/31 08:55:45;;;;;;;15.40;6.40;;;;;;;24.53;56.26;101724.46;106928;1266;24245;-60
2023/10/31 08:58:13;;;;;;;13.40;5.90;;;;;;;24.55;56.28;101722.60;107802;1254;25294;-59
2023/10/31 09:00:40;;;;;;;14.10;5.70;;;;;;;24.55;56.29;101722.20;107472;1258;25376;-59
2023/10/31 09:03:08;;;;;;;12.30;7.40;;;;;;;24.56;56.42;101717.52;107425;1266;22631;-61
2023/10/31 09:05:35;;;;;;;11.00;5.90;;;;;;;24.58;56.54;101715.31;107236;1266;25431;-62
2023/10/31 09:08:02;;;;;;;17.80;6.40;;;;;;;24.58;56.43;101712.23;107756;1259;23180;-61
2023/10/31 09:10:29;;;;;;;12.30;6.30;;;;;;;24.60;56.31;101713.38;107554;1250;22524;-58
2023/10/31 09:12:56;;;;;;;10.10;5.10;;;;;;;24.61;56.32;101707.80;107315;1250;22585;-60
2023/10/31 09:15:23;;;;;;;10.50;4.90;;;;;;;24.62;56.29;101705.95;107281;1266;24216;-58
2023/10/31 09:17:51;;;;;;;13.40;5.40;;;;;;;24.64;56.43;101701.92;107397;1259;23943;-59
2023/10/31 09:20:18;;;;;;;9.50;4.70;;;;;;;24.65;56.39;101696.36;107377;1266;26504;-58
2023/10/31 09:22:45;;;;;;;11.60;4.70;;;;;;;24.66;56.25;101693.96;107290;1266;22574;-59
2023/10/31 09:25:12;;;;;;;14.70;5.70;;;;;;;24.67;56.12;101690.90;107648;1261;22527;-59
2023/10/31 09:27:40;;;;;;;12.60;4.90;;;;;;;24.67;56.05;101691.78;107239;1259;25262;-59
2023/10/31 09:30:08;;;;;;;13.70;4.70;;;;;;;24.68;56.10;101687.45;107197;1266;25421;-60
2023/10/31 09:32:36;;;;;;;15.20;4.90;;;;;;;24.70;56.22;101686.96;107307;1262;25736;-60
2023/10/31 09:35:04;;;;;;;12.40;4.50;;;;;;;24.71;56.15;101681.94;107197;1266;25223;-60
2023/10/31 09:37:31;;;;;;;12.70;5.00;;;;;;;24.73;56.17;101680.04;106993;1272;24410;-61
2023/10/31 09:39:58;;;;;;;13.90;5.60;;;;;;;24.73;56.28;101674.72;107386;1269;25494;-61
2023/10/31 09:42:26;;;;;;;8.10;4.10;;;;;;;24.75;56.34;101674.10;107217;1267;23901;-58
2023/10/31 09:44:53;;;;;;;12.00;3.90;;;;;;;24.77;56.26;101666.31;107244;1269;25502;-59
2023/10/31 09:47:20;;;;;;;11.20;4.20;;;;;;;24.79;56.41;101661.05;107316;1256;25351;-65
2023/10/31 09:49:48;;;;;;;13.20;5.20;;;;;;;24.80;56.51;101657.92;107164;1266;25485;-61
2023/10/31 09:52:15;;;;;;;10.70;3.90;;;;;;;24.83;56.56;101657.96;107205;1266;22648;-59
2023/10/31 09:54:42;;;;;;;9.20;3.60;;;;;;;24.86;56.52;101655.23;107054;1268;24270;-60
2023/10/31 09:57:14;;;;;;;10.30;3.40;;;;;;;24.88;56.35;101648.17;107138;1269;25227;-59
2023/10/31 09:59:41;;;;;;;11.50;3.90;;;;;;;24.90;56.25;101645.01;107132;1253;24197;-59
2023/10/31 10:02:09;;;;;;;9.70;4.20;;;;;;;24.93;56.12;101645.34;107396;1266;25351;-63
2023/10/31 10:04:37;;;;;;;11.20;4.10;;;;;;;24.96;56.13;101642.11;106905;1272;22991;-60
2023/10/31 10:07:05;;;;;;;11.40;4.20;;;;;;;24.98;56.17;101639.50;107056;1251;25351;-60
2023/10/31 10:09:32;;;;;;;9.70;3.60;;;;;;;24.99;56.11;101635.17;107519;1256;25564;-61
2023/10/31 10:12:00;;;;;;;10.30;3.80;;;;;;;25.00;55.82;101632.80;107242;1260;25367;-59
2023/10/31 10:14:33;;;;;;;8.60;3.60;;;;;;;25.01;55.76;101628.98;107051;1266;24248;-60
2023/10/31 10:17:00;;;;;;;13.20;4.00;;;;;;;25.02;55.69;101623.74;107343;1265;25532;-66
2023/10/31 10:19:28;;;;;;;12.30;4.30;;;;;;;25.03;55.64;101621.73;107164;1271;24357;-62
2023/10/31 10:21:56;;;;;;;11.00;4.00;;;;;;;25.04;55.56;101619.00;107416;1254;25561;-59
2023/10/31 10:24:24;;;;;;;8.80;3.20;;;;;;;25.05;55.57;101612.73;107522;1259;25427;-62
2023/10/31 10:26:51;;;;;;;11.20;3.70;;;;;;;25.08;55.54;101613.98;107097;1266;25290;-58
2023/10/31 10:29:18;;;;;;;11.50;4.30;;;;;;;25.09;55.44;101611.02;107070;1265;22528;-61
2023/10/31 10:31:46;;;;;;;11.30;4.20;;;;;;;25.10;55.00;101607.27;107585;1266;22564;-59
2023/10/31 10:34:16;;;;;;;11.80;5.80;;;;;;;25.10;54.83;101604.55;107437;1260;25373;-59
2023/10/31 10:36:50;;;;;;;11.20;4.10;;;;;;;25.11;54.84;101598.48;107211;1269;25495;-61
2023/10/31 10:39:21;;;;;;;10.30;4.10;;;;;;;25.11;54.77;101602.71;107457;1268;22761;-60
2023/10/31 10:41:54;;;;;;;11.40;5.30;;;;;;;25.12;54.63;101596.63;107435;1259;22541;-58
2023/10/31 10:44:40;;;;;;;13.10;6.30;;;;;;;25.13;54.29;101594.41;107475;1256;22524;-62
2023/10/31 10:47:07;;;;;;;23.80;18.60;;;;;;;25.15;54.29;101585.92;107493;1269;25497;-59
2023/10/31 10:49:36;;;;;;;21.60;19.40;;;;;;;25.17;54.60;101583.30;107647;1256;23193;-62
2023/10/31 10:52:19;;;;;;;58.20;53.10;;;;;;;25.21;54.96;101577.38;107680;1253;25303;-65
2023/10/31 10:54:49;;;;;;;15.80;8.60;;;;;;;25.31;54.63;101579.65;107556;1250;23324;-63
2023/10/31 10:57:35;;;;;;;12.60;6.70;;;;;;;25.39;54.56;101577.14;107341;1266;22709;-60
2023/10/31 11:00:04;;;;;;;10.20;4.20;;;;;;;25.47;54.54;101578.56;107279;1261;25379;-58
2023/10/31 11:02:32;;;;;;;19.40;8.00;;;;;;;25.53;54.44;101575.11;106881;1273;22527;-62
2023/10/31 11:04:59;;;;;;;13.00;8.40;;;;;;;25.59;54.30;101574.32;107096;1272;25485;-58
2023/10/31 11:07:27;;;;;;;11.80;5.90;;;;;;;25.64;54.12;101573.75;107124;1266;23906;-63
2023/10/31 11:09:55;;;;;;;11.80;6.40;;;;;;;25.68;53.96;101566.19;107212;1266;25415;-58
2023/10/31 11:12:22;;;;;;;10.30;5.70;;;;;;;25.70;53.68;101558.03;107074;1266;25245;-60